createdAt,value
2024-03-10T00:00:15.769Z,18.68
2024-03-10T00:02:46.375Z,18.65
2024-03-10T00:05:14.861Z,18.64
2024-03-10T00:07:43.141Z,18.61
2024-03-10T00:10:11.333Z,18.58
2024-03-10T00:12:37.949Z,18.55
2024-03-10T00:15:08.141Z,18.53
2024-03-10T00:17:36.916Z,18.52
2024-03-10T00:20:05.081Z,18.49
2024-03-10T00:22:32.044Z,18.47
2024-03-10T00:24:58.873Z,18.45
2024-03-10T00:27:25.586Z,18.44
2024-03-10T00:29:52.205Z,18.42
2024-03-10T00:32:18.928Z,18.40
2024-03-10T00:34:45.590Z,18.37
2024-03-10T00:37:12.368Z,18.35
2024-03-10T00:39:39.111Z,18.32
2024-03-10T00:42:07.169Z,18.31
2024-03-10T00:44:33.816Z,18.28
2024-03-10T00:47:00.799Z,18.26
2024-03-10T00:49:27.534Z,18.23
2024-03-10T00:51:54.218Z,18.22
2024-03-10T00:54:21.951Z,18.21
2024-03-10T00:56:48.985Z,18.19
2024-03-10T00:59:17.325Z,18.16
2024-03-10T01:01:44.380Z,18.15
2024-03-10T01:04:11.078Z,18.14
2024-03-10T01:06:38.223Z,18.12
2024-03-10T01:09:09.816Z,18.11
2024-03-10T01:11:39.089Z,18.09
2024-03-10T01:14:06.385Z,18.08
2024-03-10T01:16:33.518Z,18.06
2024-03-10T01:19:00.809Z,18.06
2024-03-10T01:21:28.095Z,18.02
2024-03-10T01:23:54.712Z,18.01
2024-03-10T01:26:21.476Z,18.00
2024-03-10T01:28:48.257Z,17.99
2024-03-10T01:31:14.889Z,17.97
2024-03-10T01:33:41.516Z,17.94
2024-03-10T01:36:08.569Z,17.93
2024-03-10T01:38:35.254Z,17.92
2024-03-10T01:41:02.203Z,17.89
2024-03-10T01:43:28.829Z,17.87
2024-03-10T01:46:07.864Z,17.84
2024-03-10T01:48:37.016Z,17.83
2024-03-10T01:51:04.121Z,17.82
2024-03-10T01:53:32.307Z,17.80
2024-03-10T01:56:00.738Z,17.78
2024-03-10T01:58:28.782Z,17.76
2024-03-10T02:00:56.782Z,17.75
2024-03-10T02:03:23.620Z,17.73
2024-03-10T02:05:50.653Z,17.72
2024-03-10T02:08:17.320Z,17.71
2024-03-10T02:10:49.716Z,17.70
2024-03-10T02:13:17.080Z,17.67
2024-03-10T02:15:44.376Z,17.66
2024-03-10T02:18:14.075Z,17.65
2024-03-10T02:20:41.271Z,17.63
2024-03-10T02:23:07.875Z,17.63
2024-03-10T02:25:43.020Z,17.60
2024-03-10T02:28:10.994Z,17.61
2024-03-10T02:30:44.358Z,17.59
2024-03-10T02:33:36.024Z,17.57
2024-03-10T02:36:21.441Z,17.57
2024-03-10T02:39:07.054Z,17.56
2024-03-10T02:41:52.468Z,17.55
2024-03-10T02:44:37.981Z,17.53
2024-03-10T02:47:14.040Z,17.51
2024-03-10T02:49:44.147Z,17.50
2024-03-10T02:52:11.403Z,17.49
2024-03-10T02:54:41.175Z,17.48
2024-03-10T02:57:08.544Z,17.47
2024-03-10T02:59:36.085Z,17.45
2024-03-10T03:02:02.753Z,17.45
2024-03-10T03:04:29.836Z,17.44
2024-03-10T03:06:56.573Z,17.42
2024-03-10T03:09:23.164Z,17.41
2024-03-10T03:11:49.818Z,17.40
2024-03-10T03:14:16.778Z,17.41
2024-03-10T03:16:43.791Z,17.39
2024-03-10T03:19:14.196Z,17.39
2024-03-10T03:21:41.178Z,17.38
2024-03-10T03:24:09.504Z,17.37
2024-03-10T03:26:39.875Z,17.34
2024-03-10T03:29:06.554Z,17.34
2024-03-10T03:31:33.231Z,17.34
2024-03-10T03:33:59.791Z,17.31
2024-03-10T03:36:26.858Z,17.31
2024-03-10T03:38:53.539Z,17.29
2024-03-10T03:41:21.291Z,17.28
2024-03-10T03:43:49.203Z,17.26
2024-03-10T03:46:15.797Z,17.25
2024-03-10T03:48:42.390Z,17.25
2024-03-10T03:51:09.363Z,17.25
2024-03-10T03:53:36.084Z,17.21
2024-03-10T03:56:02.728Z,17.21
2024-03-10T03:58:29.318Z,17.20
2024-03-10T04:00:55.917Z,17.19
2024-03-10T04:03:22.499Z,17.19
2024-03-10T04:05:49.112Z,17.18
2024-03-10T04:08:15.707Z,17.16
2024-03-10T04:10:42.307Z,17.15
2024-03-10T04:13:09.050Z,17.14
2024-03-10T04:15:39.169Z,17.13
2024-03-10T04:18:06.771Z,17.12
2024-03-10T04:20:39.976Z,17.10
2024-03-10T04:23:06.974Z,17.08
2024-03-10T04:25:34.362Z,17.10
2024-03-10T04:28:02.680Z,17.07
2024-03-10T04:30:29.499Z,17.08
2024-03-10T04:32:56.115Z,17.06
2024-03-10T04:35:23.021Z,17.06
2024-03-10T04:37:49.648Z,17.03
2024-03-10T04:40:19.411Z,17.03
2024-03-10T04:42:46.157Z,17.03
2024-03-10T04:45:13.022Z,17.02
2024-03-10T04:47:39.872Z,17.01
2024-03-10T04:50:07.618Z,17.00
2024-03-10T04:52:34.660Z,17.00
2024-03-10T04:55:02.240Z,16.99
2024-03-10T04:57:29.026Z,16.98
2024-03-10T04:59:55.579Z,16.97
2024-03-10T05:02:22.223Z,16.95
2024-03-10T05:04:50.109Z,16.95
2024-03-10T05:07:16.806Z,16.95
2024-03-10T05:09:43.401Z,16.93
2024-03-10T05:12:13.615Z,16.93
2024-03-10T05:14:40.386Z,16.92
2024-03-10T05:17:07.594Z,16.90
2024-03-10T05:19:35.083Z,16.91
2024-03-10T05:22:01.871Z,16.89
2024-03-10T05:24:28.441Z,16.89
2024-03-10T05:26:55.027Z,16.88
2024-03-10T05:29:21.691Z,16.87
2024-03-10T05:31:48.326Z,16.85
2024-03-10T05:34:15.425Z,16.86
2024-03-10T05:36:42.120Z,16.85
2024-03-10T05:39:09.619Z,16.84
2024-03-10T05:41:36.500Z,16.83
2024-03-10T05:44:04.994Z,16.83
2024-03-10T05:46:31.727Z,16.81
2024-03-10T05:49:02.056Z,16.81
2024-03-10T05:51:28.649Z,16.80
2024-03-10T05:53:55.236Z,16.80
2024-03-10T05:56:21.862Z,16.80
2024-03-10T05:58:50.562Z,16.79
2024-03-10T06:01:24.070Z,16.78
2024-03-10T06:03:54.893Z,16.76
2024-03-10T06:06:24.886Z,16.77
2024-03-10T06:08:51.547Z,16.75
2024-03-10T06:11:20.061Z,16.74
2024-03-10T06:13:46.869Z,16.73
2024-03-10T06:16:13.472Z,16.73
2024-03-10T06:18:56.729Z,16.72
2024-03-10T06:21:43.216Z,16.71
2024-03-10T06:24:28.699Z,16.71
2024-03-10T06:26:55.821Z,16.69
2024-03-10T06:29:23.857Z,16.69
2024-03-10T06:31:51.361Z,16.68
2024-03-10T06:34:23.533Z,16.67
2024-03-10T06:36:50.491Z,16.67
2024-03-10T06:39:20.858Z,16.66
2024-03-10T06:41:48.239Z,16.66
2024-03-10T06:44:20.447Z,16.66
2024-03-10T06:46:47.241Z,16.66
2024-03-10T06:49:15.450Z,16.66
2024-03-10T06:51:42.137Z,16.66
2024-03-10T06:54:09.472Z,16.66
2024-03-10T06:56:36.134Z,16.66
2024-03-10T06:59:03.796Z,16.66
2024-03-10T07:01:31.993Z,16.67
2024-03-10T07:03:58.791Z,16.66
2024-03-10T07:06:27.854Z,16.66
2024-03-10T07:08:55.470Z,16.68
2024-03-10T07:11:22.926Z,16.68
2024-03-10T07:13:49.830Z,16.68
2024-03-10T07:16:16.646Z,16.69
2024-03-10T07:18:43.263Z,16.69
2024-03-10T07:21:09.993Z,16.68
2024-03-10T07:23:36.810Z,16.69
2024-03-10T07:26:03.560Z,16.70
2024-03-10T07:28:31.129Z,16.69
2024-03-10T07:30:57.714Z,16.71
2024-03-10T07:33:24.431Z,16.70
2024-03-10T07:35:51.230Z,16.72
2024-03-10T07:38:18.476Z,16.72
2024-03-10T07:40:45.696Z,16.72
2024-03-10T07:43:13.082Z,16.73
2024-03-10T07:45:39.780Z,16.73
2024-03-10T07:48:07.413Z,16.73
2024-03-10T07:50:36.422Z,16.73
2024-03-10T07:53:03.540Z,16.73
2024-03-10T07:55:33.550Z,16.73
2024-03-10T07:58:00.652Z,16.73
2024-03-10T08:00:27.899Z,16.74
2024-03-10T08:02:55.244Z,16.75
2024-03-10T08:05:22.906Z,16.74
2024-03-10T08:07:50.927Z,16.74
2024-03-10T08:10:18.547Z,16.75
2024-03-10T08:12:46.773Z,16.74
2024-03-10T08:15:14.503Z,16.73
2024-03-10T08:17:42.733Z,16.76
2024-03-10T08:20:15.073Z,16.76
2024-03-10T08:22:43.217Z,16.76
2024-03-10T08:25:10.817Z,16.75
2024-03-10T08:27:37.689Z,16.76
2024-03-10T08:30:05.532Z,16.78
2024-03-10T08:32:32.540Z,16.79
2024-03-10T08:34:59.354Z,16.78
2024-03-10T08:37:29.092Z,16.80
2024-03-10T08:39:55.699Z,16.80
2024-03-10T08:42:25.855Z,16.80
2024-03-10T08:44:52.630Z,16.81
2024-03-10T08:47:19.395Z,16.80
2024-03-10T08:49:46.100Z,16.81
2024-03-10T08:52:13.645Z,16.82
2024-03-10T08:54:40.333Z,16.83
2024-03-10T08:57:06.938Z,16.83
2024-03-10T08:59:34.133Z,16.83
2024-03-10T09:02:03.031Z,16.83
2024-03-10T09:04:29.707Z,16.87
2024-03-10T09:06:56.348Z,16.89
2024-03-10T09:09:23.667Z,16.90
2024-03-10T09:11:50.492Z,16.93
2024-03-10T09:14:19.734Z,16.96
2024-03-10T09:16:46.769Z,16.99
2024-03-10T09:19:13.403Z,17.00
2024-03-10T09:21:40.056Z,17.06
2024-03-10T09:24:06.915Z,17.09
2024-03-10T09:26:33.655Z,17.11
2024-03-10T09:29:02.206Z,17.14
2024-03-10T09:31:29.518Z,17.17
2024-03-10T09:33:58.360Z,17.20
2024-03-10T09:36:26.184Z,17.22
2024-03-10T09:38:53.486Z,17.26
2024-03-10T09:41:22.312Z,17.28
2024-03-10T09:43:52.571Z,17.33
2024-03-10T09:46:19.347Z,17.35
2024-03-10T09:48:46.437Z,17.37
2024-03-10T09:51:17.313Z,17.39
2024-03-10T09:53:45.187Z,17.40
2024-03-10T09:56:15.622Z,17.42
2024-03-10T09:58:51.305Z,17.44
2024-03-10T10:01:22.610Z,17.46
2024-03-10T10:03:51.663Z,17.47
2024-03-10T10:06:22.913Z,17.47
2024-03-10T10:08:56.326Z,17.48
2024-03-10T10:11:26.887Z,17.50
2024-03-10T10:14:10.526Z,17.49
2024-03-10T10:16:46.070Z,17.50
2024-03-10T10:19:17.321Z,17.55
2024-03-10T10:21:45.934Z,17.61
2024-03-10T10:24:12.910Z,17.71
2024-03-10T10:26:41.925Z,17.82
2024-03-10T10:29:10.868Z,17.96
2024-03-10T10:31:38.905Z,18.09
2024-03-10T10:34:07.401Z,18.22
2024-03-10T10:36:39.973Z,18.36
2024-03-10T10:39:10.758Z,18.49
2024-03-10T10:41:39.010Z,18.61
2024-03-10T10:44:06.999Z,18.71
2024-03-10T10:46:37.737Z,18.80
2024-03-10T10:49:06.123Z,18.90
2024-03-10T10:51:34.975Z,18.98
2024-03-10T10:54:10.205Z,19.07
2024-03-10T10:56:36.984Z,19.16
2024-03-10T10:59:03.982Z,19.24
2024-03-10T11:01:30.823Z,19.33
2024-03-10T11:03:59.008Z,19.40
2024-03-10T11:06:32.723Z,19.50
2024-03-10T11:09:00.033Z,19.57
2024-03-10T11:11:48.987Z,19.67
2024-03-10T11:14:18.064Z,19.77
2024-03-10T11:16:45.275Z,19.82
2024-03-10T11:19:22.444Z,19.87
2024-03-10T11:21:51.372Z,19.93
2024-03-10T11:24:27.633Z,20.00
2024-03-10T11:27:17.061Z,20.07
2024-03-10T11:29:43.767Z,20.14
2024-03-10T11:32:32.347Z,20.18
2024-03-10T11:35:01.040Z,20.26
2024-03-10T11:37:30.381Z,20.32
2024-03-10T11:39:58.132Z,20.37
2024-03-10T11:42:24.863Z,20.41
2024-03-10T11:44:51.788Z,20.48
2024-03-10T11:47:22.728Z,20.51
2024-03-10T11:49:51.336Z,20.54
2024-03-10T11:52:21.545Z,20.54
2024-03-10T11:55:00.706Z,20.52
2024-03-10T11:57:27.482Z,20.51
2024-03-10T11:59:57.039Z,20.49
2024-03-10T12:02:24.631Z,20.45
2024-03-10T12:04:51.558Z,20.41
2024-03-10T12:07:18.518Z,20.37
2024-03-10T12:09:45.151Z,20.32
2024-03-10T12:12:14.079Z,20.28
2024-03-10T12:14:44.254Z,20.21
2024-03-10T12:17:17.351Z,20.16
2024-03-10T12:19:44.348Z,20.12
2024-03-10T12:22:14.813Z,20.11
2024-03-10T12:24:41.978Z,20.10
2024-03-10T12:27:09.000Z,20.10
2024-03-10T12:29:49.566Z,20.08
2024-03-10T12:32:16.762Z,20.09
2024-03-10T12:34:45.321Z,20.08
2024-03-10T12:37:13.664Z,20.09
2024-03-10T12:39:40.292Z,20.09
2024-03-10T12:42:07.749Z,20.09
2024-03-10T12:44:34.448Z,20.10
2024-03-10T12:47:01.732Z,20.09
2024-03-10T12:49:28.539Z,20.09
2024-03-10T12:51:55.160Z,20.07
2024-03-10T12:54:21.772Z,20.06
2024-03-10T12:56:49.067Z,20.05
2024-03-10T12:59:15.777Z,20.03
2024-03-10T13:01:42.406Z,20.02
2024-03-10T13:04:09.035Z,20.00
2024-03-10T13:06:35.964Z,20.00
2024-03-10T13:09:02.643Z,19.98
2024-03-10T13:11:32.300Z,19.98
2024-03-10T13:13:59.560Z,19.97
2024-03-10T13:16:26.708Z,19.95
2024-03-10T13:18:53.387Z,19.95
2024-03-10T13:21:20.141Z,19.93
2024-03-10T13:23:47.066Z,19.92
2024-03-10T13:26:15.060Z,19.92
2024-03-10T13:28:43.512Z,19.90
2024-03-10T13:31:10.803Z,19.89
2024-03-10T13:33:38.931Z,19.87
2024-03-10T13:36:16.449Z,19.87
2024-03-10T13:38:44.840Z,19.86
2024-03-10T13:41:11.735Z,19.85
2024-03-10T13:43:38.475Z,19.84
2024-03-10T13:46:05.960Z,19.83
2024-03-10T13:48:35.053Z,19.83
2024-03-10T13:51:02.333Z,19.83
2024-03-10T13:53:30.382Z,19.83
2024-03-10T13:55:57.643Z,19.83
2024-03-10T13:58:24.527Z,19.81
2024-03-10T14:00:51.390Z,19.81
2024-03-10T14:03:18.140Z,19.81
2024-03-10T14:05:44.935Z,19.80
2024-03-10T14:08:11.568Z,19.81
2024-03-10T14:10:38.544Z,19.80
2024-03-10T14:13:05.299Z,19.79
2024-03-10T14:15:38.372Z,19.79
2024-03-10T14:18:08.424Z,19.78
2024-03-10T14:20:35.265Z,19.79
2024-03-10T14:23:02.157Z,19.77
2024-03-10T14:25:28.872Z,19.77
2024-03-10T14:27:55.573Z,19.77
2024-03-10T14:30:24.326Z,19.78
2024-03-10T14:32:54.734Z,19.79
2024-03-10T14:35:25.087Z,19.80
2024-03-10T14:37:53.719Z,19.80
2024-03-10T14:40:22.632Z,19.82
2024-03-10T14:42:55.171Z,19.80
2024-03-10T14:45:22.476Z,19.80
2024-03-10T14:47:53.352Z,19.77
2024-03-10T14:50:21.473Z,19.79
2024-03-10T14:52:50.025Z,19.78
2024-03-10T14:55:17.633Z,19.77
2024-03-10T14:57:45.110Z,19.75
2024-03-10T15:00:41.416Z,19.75
2024-03-10T15:03:12.372Z,19.73
2024-03-10T15:05:42.696Z,19.72
2024-03-10T15:08:12.649Z,19.70
2024-03-10T15:10:41.518Z,19.70
2024-03-10T15:13:10.858Z,19.69
2024-03-10T15:15:38.089Z,19.68
2024-03-10T15:18:07.041Z,19.69
2024-03-10T15:20:34.723Z,19.69
2024-03-10T15:23:02.491Z,19.70
2024-03-10T15:25:35.402Z,19.69
2024-03-10T15:28:02.409Z,19.65
2024-03-10T15:30:29.161Z,19.62
2024-03-10T15:32:55.856Z,19.56
2024-03-10T15:35:22.959Z,19.54
2024-03-10T15:37:49.923Z,19.53
2024-03-10T15:40:20.085Z,19.55
2024-03-10T15:42:47.595Z,19.55
2024-03-10T15:45:19.292Z,19.55
2024-03-10T15:47:53.379Z,19.55
2024-03-10T15:50:20.355Z,19.53
2024-03-10T15:52:48.952Z,19.51
2024-03-10T15:55:18.084Z,19.50
2024-03-10T15:57:47.054Z,19.48
2024-03-10T16:00:16.686Z,19.48
2024-03-10T16:02:51.290Z,19.46
2024-03-10T16:05:33.203Z,19.45
2024-03-10T16:07:59.955Z,19.44
2024-03-10T16:10:27.690Z,19.42
2024-03-10T16:12:54.811Z,19.40
2024-03-10T16:15:30.540Z,19.38
2024-03-10T16:17:57.844Z,19.37
2024-03-10T16:20:26.352Z,19.36
2024-03-10T16:22:55.544Z,19.33
2024-03-10T16:25:22.543Z,19.32
2024-03-10T16:27:50.702Z,19.30
2024-03-10T16:30:17.493Z,19.27
2024-03-10T16:32:45.554Z,19.26
2024-03-10T16:35:12.828Z,19.24
2024-03-10T16:37:42.842Z,19.22
2024-03-10T16:40:13.706Z,19.20
2024-03-10T16:42:46.063Z,19.18
2024-03-10T16:45:17.636Z,19.16
2024-03-10T16:47:51.329Z,19.14
2024-03-10T16:50:27.971Z,19.12
2024-03-10T16:52:57.807Z,19.11
2024-03-10T16:55:25.017Z,19.09
2024-03-10T16:57:57.908Z,19.06
2024-03-10T17:00:31.811Z,19.05
2024-03-10T17:02:58.895Z,19.02
2024-03-10T17:05:26.364Z,19.00
2024-03-10T17:07:53.191Z,18.98
2024-03-10T17:10:20.903Z,18.95
2024-03-10T17:12:47.567Z,18.93
2024-03-10T17:15:17.112Z,18.92
2024-03-10T17:17:45.067Z,18.88
2024-03-10T17:20:13.416Z,18.86
2024-03-10T17:22:41.487Z,18.84
2024-03-10T17:25:09.266Z,18.82
2024-03-10T17:27:37.027Z,18.82
2024-03-10T17:30:04.357Z,18.79
2024-03-10T17:32:31.115Z,18.77
2024-03-10T17:34:58.288Z,18.74
2024-03-10T17:37:26.105Z,18.72
2024-03-10T17:39:55.713Z,18.70
2024-03-10T17:42:22.990Z,18.68
2024-03-10T17:44:49.592Z,18.66
2024-03-10T17:47:16.584Z,18.64
2024-03-10T17:49:44.484Z,18.61
2024-03-10T17:52:11.818Z,18.59
2024-03-10T17:54:38.814Z,18.57
2024-03-10T17:57:06.021Z,18.55
2024-03-10T17:59:33.417Z,18.53
2024-03-10T18:02:00.989Z,18.52
2024-03-10T18:04:28.151Z,18.50
2024-03-10T18:06:56.136Z,18.49
2024-03-10T18:09:22.757Z,18.46
2024-03-10T18:11:50.022Z,18.45
2024-03-10T18:14:18.124Z,18.44
2024-03-10T18:16:45.201Z,18.42
2024-03-10T18:19:12.894Z,18.40
2024-03-10T18:21:42.616Z,18.38
2024-03-10T18:24:12.597Z,18.36
2024-03-10T18:26:43.559Z,18.36
2024-03-10T18:29:12.354Z,18.34
2024-03-10T18:31:41.898Z,18.32
2024-03-10T18:34:08.826Z,18.31
2024-03-10T18:36:36.023Z,18.30
2024-03-10T18:39:03.204Z,18.28
2024-03-10T18:41:29.940Z,18.27
2024-03-10T18:43:57.686Z,18.24
2024-03-10T18:46:25.817Z,18.23
2024-03-10T18:48:52.746Z,18.21
2024-03-10T18:51:19.786Z,18.21
2024-03-10T18:53:46.598Z,18.19
2024-03-10T18:56:16.870Z,18.18
2024-03-10T18:58:43.682Z,18.17
2024-03-10T19:01:12.227Z,18.15
2024-03-10T19:03:45.307Z,18.13
2024-03-10T19:06:17.298Z,18.12
2024-03-10T19:08:45.163Z,18.10
2024-03-10T19:11:12.575Z,18.08
2024-03-10T19:13:40.899Z,18.08
2024-03-10T19:16:10.073Z,18.07
2024-03-10T19:18:36.853Z,18.05
2024-03-10T19:21:04.235Z,18.04
2024-03-10T19:23:31.306Z,18.03
2024-03-10T19:26:00.557Z,18.00
2024-03-10T19:28:27.808Z,17.98
2024-03-10T19:30:55.868Z,17.98
2024-03-10T19:33:23.428Z,17.97
2024-03-10T19:35:50.582Z,17.96
2024-03-10T19:38:17.841Z,17.94
2024-03-10T19:40:44.765Z,17.92
2024-03-10T19:43:14.028Z,17.91
2024-03-10T19:45:42.957Z,17.91
2024-03-10T19:48:12.150Z,17.89
2024-03-10T19:50:39.196Z,17.88
2024-03-10T19:53:06.105Z,17.88
2024-03-10T19:55:34.786Z,17.87
2024-03-10T19:58:01.961Z,17.85
2024-03-10T20:00:30.236Z,17.84
2024-03-10T20:02:58.013Z,17.83
2024-03-10T20:05:24.846Z,17.82
2024-03-10T20:07:53.803Z,17.81
2024-03-10T20:10:21.707Z,17.80
2024-03-10T20:12:50.914Z,17.78
2024-03-10T20:15:21.046Z,17.78
2024-03-10T20:17:50.419Z,17.75
2024-03-10T20:20:24.670Z,17.76
2024-03-10T20:23:01.986Z,17.73
2024-03-10T20:25:29.302Z,17.74
2024-03-10T20:27:59.954Z,17.73
2024-03-10T20:30:30.696Z,17.72
2024-03-10T20:32:57.874Z,17.72
2024-03-10T20:35:24.743Z,17.70
2024-03-10T20:37:51.466Z,17.69
2024-03-10T20:40:18.223Z,17.68
2024-03-10T20:42:44.846Z,17.68
2024-03-10T20:45:11.576Z,17.67
2024-03-10T20:47:46.894Z,17.66
2024-03-10T20:50:15.480Z,17.66
2024-03-10T20:52:42.170Z,17.66
2024-03-10T20:55:09.230Z,17.64
2024-03-10T20:57:35.845Z,17.64
2024-03-10T21:00:05.115Z,17.63
2024-03-10T21:02:32.254Z,17.63
2024-03-10T21:04:58.970Z,17.60
2024-03-10T21:07:25.658Z,17.60
2024-03-10T21:09:52.336Z,17.59
2024-03-10T21:12:19.609Z,17.58
2024-03-10T21:14:46.323Z,17.58
2024-03-10T21:17:13.257Z,17.57
2024-03-10T21:19:40.581Z,17.56
2024-03-10T21:22:08.637Z,17.56
2024-03-10T21:24:35.687Z,17.56
2024-03-10T21:27:02.279Z,17.56
2024-03-10T21:29:29.286Z,17.55
2024-03-10T21:31:56.278Z,17.54
2024-03-10T21:34:24.223Z,17.54
2024-03-10T21:36:51.694Z,17.53
2024-03-10T21:39:20.891Z,17.52
2024-03-10T21:41:47.929Z,17.51
2024-03-10T21:44:14.825Z,17.51
2024-03-10T21:46:41.552Z,17.50
2024-03-10T21:49:09.674Z,17.50
2024-03-10T21:51:36.545Z,17.49
2024-03-10T21:54:04.283Z,17.50
2024-03-10T21:56:34.304Z,17.48
2024-03-10T21:59:02.009Z,17.48
2024-03-10T22:01:29.062Z,17.48
2024-03-10T22:03:57.024Z,17.47
2024-03-10T22:06:23.787Z,17.46
2024-03-10T22:08:50.475Z,17.47
2024-03-10T22:11:17.232Z,17.46
2024-03-10T22:13:43.832Z,17.45
2024-03-10T22:16:10.545Z,17.45
2024-03-10T22:18:37.160Z,17.45
2024-03-10T22:21:04.012Z,17.44
2024-03-10T22:23:30.777Z,17.44
2024-03-10T22:25:57.444Z,17.44
2024-03-10T22:28:24.088Z,17.44
2024-03-10T22:30:50.671Z,17.42
2024-03-10T22:33:17.300Z,17.42
2024-03-10T22:35:43.990Z,17.42
2024-03-10T22:38:11.904Z,17.41
2024-03-10T22:40:38.634Z,17.41
2024-03-10T22:43:05.267Z,17.39
2024-03-10T22:45:33.857Z,17.38
2024-03-10T22:48:01.758Z,17.38
2024-03-10T22:50:29.203Z,17.38
2024-03-10T22:52:56.983Z,17.36
2024-03-10T22:55:24.233Z,17.36
2024-03-10T22:57:50.969Z,17.35
2024-03-10T23:00:24.212Z,17.34
2024-03-10T23:02:52.451Z,17.33
2024-03-10T23:05:21.617Z,17.34
2024-03-10T23:07:49.690Z,17.34
2024-03-10T23:10:17.388Z,17.31
2024-03-10T23:12:44.214Z,17.32
2024-03-10T23:15:11.061Z,17.30
2024-03-10T23:17:37.835Z,17.30
2024-03-10T23:20:10.261Z,17.28
2024-03-10T23:22:37.386Z,17.27
2024-03-10T23:25:05.685Z,17.28
2024-03-10T23:27:35.792Z,17.26
2024-03-10T23:30:02.775Z,17.26
2024-03-10T23:32:32.382Z,17.26
2024-03-10T23:34:59.246Z,17.25
2024-03-10T23:37:27.584Z,17.25
2024-03-10T23:39:54.246Z,17.23
2024-03-10T23:42:23.529Z,17.23
2024-03-10T23:44:51.898Z,17.23
2024-03-10T23:47:19.967Z,17.21
2024-03-10T23:49:48.816Z,17.19
2024-03-10T23:52:15.611Z,17.19
2024-03-10T23:54:42.200Z,17.19
2024-03-10T23:57:08.764Z,17.18
2024-03-10T23:59:35.464Z,17.19
